Time;durP1;ratioP1;P1;durP2;ratioP2;P2;SDS_P1;SDS_P2;PMS_P1;PMS_P2;Temp;Humidity;BMP_temperature;BMP_pressure;BME280_temperature;BME280_humidity;BME280_pressure;Samples;Min_cycle;Max_cycle;Signal;HPM_P1;HPM_P2
2022/05/26 00:01:19;;;;;;;5.65;1.45;;;17.90;99.90;;;;;;5062584;28;20028;-70
2022/05/26 00:03:46;;;;;;;4.00;1.55;;;17.90;99.90;;;;;;5065856;28;20050;-70
2022/05/26 00:06:15;;;;;;;3.15;1.40;;;17.90;99.90;;;;;;5065109;28;20068;-70
2022/05/26 00:08:40;;;;;;;4.40;1.40;;;17.90;99.90;;;;;;5064556;28;20020;-70
2022/05/26 00:11:10;;;;;;;5.85;1.70;;;17.90;99.90;;;;;;5062786;28;20060;-70
2022/05/26 00:13:37;;;;;;;3.50;1.30;;;17.80;99.90;;;;;;5065548;28;20072;-70
2022/05/26 00:16:03;;;;;;;4.75;1.92;;;17.80;99.90;;;;;;5063916;28;20021;-72
2022/05/26 00:18:29;;;;;;;4.22;1.85;;;17.80;99.90;;;;;;5064735;28;20025;-71
2022/05/26 00:20:55;;;;;;;5.50;2.10;;;17.70;99.90;;;;;;5063545;28;20082;-71
2022/05/26 00:23:20;;;;;;;4.28;1.92;;;17.80;99.90;;;;;;5065208;28;20024;-71
2022/05/26 00:25:46;;;;;;;4.93;1.80;;;17.90;99.90;;;;;;5065071;28;20537;-72
2022/05/26 00:28:12;;;;;;;4.93;2.05;;;17.90;99.90;;;;;;5063936;28;20160;-72
2022/05/26 00:30:37;;;;;;;4.82;1.77;;;17.90;99.90;;;;;;5064086;28;20546;-72
2022/05/26 00:33:05;;;;;;;6.85;2.20;;;17.80;99.90;;;;;;5063233;28;20435;-71
2022/05/26 00:35:34;;;;;;;5.47;2.08;;;17.80;99.90;;;;;;5063570;28;20028;-71
2022/05/26 00:38:04;;;;;;;4.53;2.50;;;17.80;99.90;;;;;;5064881;28;20032;-72
2022/05/26 00:40:30;;;;;;;5.75;2.60;;;17.70;99.90;;;;;;5070995;28;20491;-71
2022/05/26 00:42:56;;;;;;;8.50;2.22;;;17.70;99.90;;;;;;5065060;28;20451;-71
2022/05/26 00:45:22;;;;;;;6.47;2.92;;;17.70;99.90;;;;;;5063002;28;20037;-71
2022/05/26 00:47:48;;;;;;;6.45;2.78;;;17.80;99.90;;;;;;5064876;28;20111;-72
2022/05/26 00:50:23;;;;;;;4.53;2.33;;;17.70;99.90;;;;;;5063869;28;20025;-71
2022/05/26 00:52:53;;;;;;;3.85;2.55;;;17.70;99.90;;;;;;5063680;28;20024;-72
2022/05/26 00:55:40;;;;;;;4.38;2.40;;;17.70;99.90;;;;;;5063171;28;20094;-71
2022/05/26 00:58:12;;;;;;;4.28;2.17;;;17.70;99.90;;;;;;5057544;28;20036;-71
2022/05/26 01:00:39;;;;;;;4.07;2.47;;;17.80;99.90;;;;;;5074036;28;20043;-71
2022/05/26 01:03:18;;;;;;;4.30;1.90;;;17.80;99.90;;;;;;5073113;28;20033;-71
2022/05/26 01:06:10;;;;;;;6.13;2.20;;;17.70;99.90;;;;;;5073989;28;20067;-71
2022/05/26 01:08:45;;;;;;;7.20;2.40;;;17.60;99.90;;;;;;5074510;28;20028;-71
2022/05/26 01:11:11;;;;;;;5.35;2.42;;;17.70;99.90;;;;;;5068863;28;20465;-71
2022/05/26 01:13:48;;;;;;;6.50;2.35;;;17.70;99.90;;;;;;5070226;28;20063;-71
2022/05/26 01:16:24;;;;;;;7.00;2.45;;;17.70;99.90;;;;;;5054074;28;20032;-71
2022/05/26 01:19:15;;;;;;;6.65;2.40;;;17.60;99.90;;;;;;5073466;28;20361;-71
2022/05/26 01:21:46;;;;;;;6.03;2.33;;;17.60;99.90;;;;;;5073059;28;20170;-70
2022/05/26 01:24:24;;;;;;;6.18;2.70;;;17.70;99.90;;;;;;5074141;28;20503;-72
2022/05/26 01:27:18;;;;;;;3.30;2.03;;;17.70;99.90;;;;;;5074058;28;20473;-71
2022/05/26 01:30:04;;;;;;;6.95;2.78;;;17.70;99.90;;;;;;5074269;28;20021;-71
2022/05/26 01:33:02;;;;;;;6.63;2.25;;;17.60;99.90;;;;;;5056947;28;20036;-72
2022/05/26 01:35:56;;;;;;;4.72;2.83;;;17.70;99.90;;;;;;5052059;28;20079;-71
2022/05/26 01:38:24;;;;;;;6.75;2.40;;;17.70;99.90;;;;;;5043564;28;20447;-70
2022/05/26 01:41:11;;;;;;;6.45;2.63;;;17.60;99.90;;;;;;5053781;28;20509;-71
2022/05/26 01:43:42;;;;;;;8.70;2.53;;;17.60;99.90;;;;;;5055710;28;20040;-71
2022/05/26 01:46:11;;;;;;;5.20;2.35;;;17.70;99.90;;;;;;5053643;28;20116;-71
2022/05/26 01:48:48;;;;;;;7.35;2.20;;;17.70;99.90;;;;;;5052368;28;20370;-72
2022/05/26 01:51:30;;;;;;;5.70;2.38;;;17.60;99.90;;;;;;5053584;28;20041;-72
2022/05/26 01:54:09;;;;;;;5.50;2.00;;;17.60;99.90;;;;;;5073632;28;20032;-72
2022/05/26 01:57:04;;;;;;;6.97;2.80;;;17.70;99.90;;;;;;5073009;28;20060;-72
2022/05/26 01:59:45;;;;;;;5.72;2.85;;;17.70;99.90;;;;;;5072141;28;20138;-72
2022/05/26 02:02:18;;;;;;;7.05;2.95;;;17.50;99.90;;;;;;5073299;28;20163;-71
2022/05/26 02:04:50;;;;;;;8.38;2.40;;;17.60;99.90;;;;;;5071360;28;20484;-71
2022/05/26 02:07:19;;;;;;;6.28;3.00;;;17.60;99.90;;;;;;5073292;28;20484;-71
2022/05/26 02:09:45;;;;;;;5.47;2.95;;;17.70;99.90;;;;;;5073060;28;20107;-71
2022/05/26 02:12:30;;;;;;;12.38;3.30;;;17.70;99.90;;;;;;5071683;28;20116;-71
2022/05/26 02:15:04;;;;;;;7.57;2.78;;;17.70;99.90;;;;;;5073378;28;20032;-72
2022/05/26 02:17:34;;;;;;;8.25;3.03;;;17.60;99.90;;;;;;5073310;28;20032;-71
2022/05/26 02:20:38;;;;;;;9.05;2.97;;;17.60;99.90;;;;;;5072842;28;20488;-71
2022/05/26 02:23:17;;;;;;;10.95;3.20;;;17.50;99.90;;;;;;5073346;28;20044;-71
2022/05/26 02:25:43;;;;;;;7.45;3.47;;;17.60;99.90;;;;;;5068519;28;20029;-71
2022/05/26 02:28:09;;;;;;;11.13;3.35;;;17.60;99.90;;;;;;5052902;28;20389;-71
2022/05/26 02:30:41;;;;;;;9.45;3.70;;;17.60;99.90;;;;;;5053107;28;20029;-71
2022/05/26 02:33:09;;;;;;;12.68;3.58;;;17.50;99.90;;;;;;5052761;28;20087;-70
2022/05/26 02:35:42;;;;;;;11.55;3.97;;;17.50;99.90;;;;;;5052985;28;20377;-71
2022/05/26 02:38:15;;;;;;;6.90;3.90;;;17.50;99.90;;;;;;5052597;28;20071;-70
2022/05/26 02:40:42;;;;;;;14.27;4.20;;;17.60;99.90;;;;;;5056623;28;20029;-71
2022/05/26 02:43:22;;;;;;;12.18;3.45;;;17.50;99.90;;;;;;5052845;28;20033;-70
2022/05/26 02:45:59;;;;;;;12.82;4.35;;;17.50;99.90;;;;;;5052889;28;20120;-71
2022/05/26 02:49:02;;;;;;;10.48;3.55;;;17.50;99.90;;;;;;5052342;28;20037;-71
2022/05/26 02:51:42;;;;;;;11.82;4.10;;;17.40;99.90;;;;;;5052639;28;20041;-71
2022/05/26 02:54:45;;;;;;;10.73;4.70;;;17.40;99.90;;;;;;5068482;28;20141;-71
2022/05/26 02:57:35;;;;;;;9.27;3.83;;;17.40;99.90;;;;;;5070347;28;20064;-70
2022/05/26 03:00:04;;;;;;;13.85;4.72;;;17.40;99.90;;;;;;5072688;28;20060;-71
2022/05/26 03:02:29;;;;;;;10.77;4.53;;;17.30;99.90;;;;;;5052709;28;20124;-71
2022/05/26 03:05:23;;;;;;;13.05;4.35;;;17.30;99.90;;;;;;5052224;28;20600;-71
2022/05/26 03:07:53;;;;;;;15.93;4.63;;;17.40;99.90;;;;;;5051007;28;20048;-70
2022/05/26 03:10:24;;;;;;;15.13;4.63;;;17.40;99.90;;;;;;5052658;28;20033;-71
2022/05/26 03:12:50;;;;;;;15.25;5.90;;;17.40;99.90;;;;;;5053903;28;20024;-71
2022/05/26 03:15:15;;;;;;;16.50;5.22;;;17.40;99.90;;;;;;5052343;28;20478;-71
2022/05/26 03:17:41;;;;;;;12.40;5.22;;;17.40;99.90;;;;;;5052049;28;20037;-71
2022/05/26 03:20:07;;;;;;;15.60;5.80;;;17.40;99.90;;;;;;5052127;28;20189;-70
2022/05/26 03:22:33;;;;;;;11.45;5.75;;;17.40;99.90;;;;;;5052664;28;20385;-71
2022/05/26 03:24:58;;;;;;;14.57;5.97;;;17.50;99.90;;;;;;5054918;28;20029;-71
2022/05/26 03:27:25;;;;;;;15.45;5.53;;;17.50;99.90;;;;;;5057338;28;20040;-71
2022/05/26 03:29:50;;;;;;;21.13;6.53;;;17.40;99.90;;;;;;5056407;28;20029;-71
2022/05/26 03:32:19;;;;;;;13.60;5.60;;;17.50;99.90;;;;;;5056013;28;20083;-70
2022/05/26 03:42:57;;;;;;;19.27;6.35;;;17.40;99.90;;;;;;5064515;28;20403;-71
2022/05/26 03:45:24;;;;;;;18.98;5.80;;;17.40;99.90;;;;;;5055522;28;20049;-71
2022/05/26 03:47:50;;;;;;;18.33;5.72;;;17.30;99.90;;;;;;5061889;28;20024;-71
2022/05/26 03:50:16;;;;;;;17.15;5.40;;;17.40;99.90;;;;;;5071796;28;20124;-70
2022/05/26 03:52:41;;;;;;;19.27;5.15;;;17.40;99.90;;;;;;5055892;28;20472;-71
2022/05/26 03:55:08;;;;;;;12.80;4.85;;;17.30;99.90;;;;;;5054608;28;20063;-71
2022/05/26 03:57:33;;;;;;;19.95;5.07;;;17.30;99.90;;;;;;5055764;28;20096;-71
2022/05/26 03:59:59;;;;;;;20.38;5.60;;;17.40;99.90;;;;;;5072220;28;20099;-71
2022/05/26 04:02:26;;;;;;;17.20;5.68;;;17.40;99.90;;;;;;5075575;28;20028;-71
2022/05/26 04:04:51;;;;;;;18.55;6.10;;;17.40;99.90;;;;;;5075287;28;20086;-71
2022/05/26 04:07:17;;;;;;;18.52;5.43;;;17.40;99.90;;;;;;5075487;28;20044;-69
2022/05/26 04:09:42;;;;;;;19.55;7.25;;;17.40;99.90;;;;;;5073004;28;20028;-71
2022/05/26 04:12:10;;;;;;;22.20;6.53;;;17.40;99.90;;;;;;5055532;28;20025;-71
2022/05/26 04:14:37;;;;;;;21.92;7.00;;;17.30;99.90;;;;;;5054724;28;20043;-71
2022/05/26 04:17:03;;;;;;;22.02;7.00;;;17.30;99.90;;;;;;5055572;28;20029;-71
2022/05/26 04:19:29;;;;;;;22.73;6.88;;;17.30;99.90;;;;;;5053616;28;20465;-71
2022/05/26 04:24:39;;;;;;;20.17;7.40;;;17.30;99.90;;;;;;5054969;28;20044;-71
2022/05/26 04:27:05;;;;;;;23.95;8.13;;;17.20;99.90;;;;;;5065900;28;20032;-70
2022/05/26 04:29:31;;;;;;;26.65;9.48;;;17.30;99.90;;;;;;5074923;28;20071;-71
2022/05/26 04:31:57;;;;;;;24.88;7.80;;;17.20;99.90;;;;;;5074587;28;20047;-71
2022/05/26 04:34:23;;;;;;;24.40;8.32;;;17.20;99.90;;;;;;5089558;28;20473;-71
2022/05/26 04:36:49;;;;;;;27.45;9.38;;;17.20;99.90;;;;;;5075094;28;20037;-70
2022/05/26 04:39:16;;;;;;;25.58;9.35;;;17.30;99.90;;;;;;5066179;28;20033;-71
2022/05/26 04:41:42;;;;;;;24.90;7.65;;;17.40;99.90;;;;;;5054894;28;20086;-70
2022/05/26 04:44:09;;;;;;;27.70;9.05;;;17.30;99.90;;;;;;5068229;28;20051;-71
2022/05/26 04:46:36;;;;;;;23.23;7.72;;;17.40;99.90;;;;;;5054689;28;20128;-71
2022/05/26 04:49:05;;;;;;;20.92;8.43;;;17.40;99.90;;;;;;5061748;28;20081;-71
2022/05/26 04:51:34;;;;;;;22.45;8.18;;;17.40;99.90;;;;;;5074814;28;20062;-71
2022/05/26 04:54:01;;;;;;;27.27;8.25;;;17.30;99.90;;;;;;5074769;28;20024;-71
2022/05/26 04:56:26;;;;;;;21.05;8.15;;;17.40;99.90;;;;;;5074572;28;20492;-71
2022/05/26 04:58:52;;;;;;;22.27;8.25;;;17.40;99.90;;;;;;5073867;28;20059;-71
2022/05/26 05:01:19;;;;;;;22.85;8.45;;;17.40;99.90;;;;;;5067239;28;20056;-71
2022/05/26 05:03:48;;;;;;;18.58;8.10;;;17.30;99.90;;;;;;5054718;28;20091;-71
2022/05/26 05:06:15;;;;;;;23.08;7.93;;;17.30;99.90;;;;;;5052980;28;20037;-71
2022/05/26 05:08:42;;;;;;;16.33;7.20;;;17.30;99.90;;;;;;5054378;28;20116;-71
2022/05/26 05:11:09;;;;;;;17.65;7.32;;;17.30;99.90;;;;;;5058359;28;20036;-71
2022/05/26 05:13:35;;;;;;;21.65;7.53;;;17.20;99.90;;;;;;5072497;28;20040;-71
2022/05/26 05:16:08;;;;;;;22.77;8.25;;;17.30;99.90;;;;;;5086720;28;20396;-71
2022/05/26 05:18:34;;;;;;;25.27;7.75;;;17.30;99.90;;;;;;5072972;28;20066;-71
2022/05/26 05:21:07;;;;;;;23.15;7.82;;;17.40;99.90;;;;;;5054577;28;20056;-71
2022/05/26 05:23:37;;;;;;;22.38;7.85;;;17.50;99.90;;;;;;5053227;28;20495;-71
2022/05/26 05:26:03;;;;;;;28.50;7.93;;;17.50;99.90;;;;;;5053873;28;20040;-71
2022/05/26 05:28:34;;;;;;;21.23;8.07;;;17.50;99.90;;;;;;5053751;28;20033;-71
2022/05/26 05:31:04;;;;;;;25.23;8.38;;;17.60;99.90;;;;;;5053624;28;20048;-71
2022/05/26 05:33:48;;;;;;;29.92;8.75;;;17.60;99.90;;;;;;5053977;28;20025;-71
2022/05/26 05:36:28;;;;;;;24.55;8.20;;;17.70;99.90;;;;;;5063467;28;20170;-72
2022/05/26 05:38:55;;;;;;;25.52;8.30;;;17.50;99.90;;;;;;5073033;28;20136;-71
2022/05/26 05:41:21;;;;;;;20.88;8.73;;;17.50;99.90;;;;;;5071586;28;20029;-71
2022/05/26 05:43:48;;;;;;;21.20;7.85;;;17.50;99.90;;;;;;5066072;28;20404;-71
2022/05/26 05:46:20;;;;;;;22.70;9.02;;;17.50;99.90;;;;;;5051716;28;20111;-71
2022/05/26 05:48:47;;;;;;;21.58;10.00;;;17.70;99.90;;;;;;5053500;28;20032;-71
2022/05/26 05:51:14;;;;;;;22.55;9.70;;;17.70;99.90;;;;;;5046069;28;20490;-71
2022/05/26 05:53:40;;;;;;;25.98;10.82;;;17.70;99.90;;;;;;5059935;28;20036;-71
2022/05/26 05:56:06;;;;;;;25.63;11.65;;;17.70;99.90;;;;;;5073116;28;20040;-71
2022/05/26 05:58:32;;;;;;;28.35;13.27;;;17.70;99.90;;;;;;5087703;28;20385;-71
2022/05/26 06:00:57;;;;;;;27.75;12.10;;;17.70;99.90;;;;;;5078876;28;20028;-72
2022/05/26 06:03:23;;;;;;;27.23;13.15;;;17.60;99.90;;;;;;5075553;28;20104;-72
2022/05/26 06:05:49;;;;;;;30.98;13.52;;;17.70;99.90;;;;;;5051508;28;20120;-71
2022/05/26 06:08:15;;;;;;;28.05;12.93;;;17.60;99.90;;;;;;5064247;28;20024;-71
2022/05/26 06:10:41;;;;;;;34.20;13.50;;;17.70;99.90;;;;;;5057519;28;20111;-70
2022/05/26 06:13:06;;;;;;;26.05;13.20;;;17.70;99.90;;;;;;5061013;28;20037;-69
2022/05/26 06:15:33;;;;;;;31.80;13.30;;;17.90;99.90;;;;;;5062877;28;20051;-69
2022/05/26 06:17:59;;;;;;;27.88;14.25;;;17.90;99.90;;;;;;5058431;28;20047;-69
2022/05/26 06:20:26;;;;;;;29.85;14.48;;;17.90;99.90;;;;;;5061313;28;20045;-69
2022/05/26 06:22:52;;;;;;;32.15;14.15;;;18.00;99.90;;;;;;5060387;28;20047;-69
2022/05/26 06:25:19;;;;;;;29.80;14.30;;;18.00;99.90;;;;;;5057312;28;20481;-69
2022/05/26 06:30:32;;;;;;;36.60;17.75;;;18.00;99.90;;;;;;5067327;28;20120;-68
2022/05/26 06:38:34;;;;;;;27.63;13.70;;;18.10;99.90;;;;;;5066918;28;20135;-68
2022/05/26 06:42:05;;;;;;;25.95;14.07;;;18.00;99.90;;;;;;5072560;28;20082;-68
2022/05/26 06:43:46;;;;;;;24.13;13.88;;;18.10;99.90;;;;;;5061619;28;20449;-69
2022/05/26 06:46:11;;;;;;;27.98;13.77;;;18.10;99.90;;;;;;5068733;28;20040;-69
2022/05/26 06:48:37;;;;;;;22.55;14.02;;;18.20;99.90;;;;;;5076688;28;20056;-69
2022/05/26 06:51:05;;;;;;;27.40;13.25;;;18.20;99.90;;;;;;5072411;28;20095;-68
2022/05/26 06:53:31;;;;;;;26.20;14.27;;;18.30;99.90;;;;;;5074410;28;20037;-68
2022/05/26 06:55:57;;;;;;;24.42;13.10;;;18.20;99.90;;;;;;5073484;28;20386;-69
2022/05/26 06:58:23;;;;;;;30.63;14.90;;;18.20;99.90;;;;;;5071734;28;20031;-69
2022/05/26 07:00:49;;;;;;;25.67;14.18;;;18.20;99.90;;;;;;5074665;28;20035;-68
2022/05/26 07:03:15;;;;;;;30.63;14.07;;;18.30;99.90;;;;;;5067149;28;20056;-68
2022/05/26 07:05:41;;;;;;;28.38;15.55;;;18.30;99.90;;;;;;5068554;28;20028;-68
2022/05/26 07:08:06;;;;;;;27.90;14.30;;;18.10;99.90;;;;;;5071524;28;20041;-68
2022/05/26 07:10:34;;;;;;;34.83;15.82;;;18.00;99.90;;;;;;5072925;28;20032;-69
2022/05/26 07:13:00;;;;;;;23.70;14.52;;;18.10;99.90;;;;;;5068280;28;20065;-68
2022/05/26 07:15:25;;;;;;;28.35;15.63;;;18.20;99.90;;;;;;5070037;28;20056;-69
2022/05/26 07:17:51;;;;;;;32.53;16.10;;;18.30;99.90;;;;;;5077122;28;20502;-68
2022/05/26 07:20:17;;;;;;;26.50;15.10;;;18.30;99.90;;;;;;5076431;28;20107;-69
2022/05/26 07:22:42;;;;;;;26.00;14.43;;;18.40;99.90;;;;;;5077340;28;20033;-69
2022/05/26 07:25:09;;;;;;;27.95;15.70;;;18.40;99.90;;;;;;5076619;28;20028;-69
2022/05/26 07:27:35;;;;;;;26.50;14.57;;;18.40;99.90;;;;;;5072508;28;20415;-69
2022/05/26 07:30:01;;;;;;;22.83;13.05;;;18.50;99.90;;;;;;5070444;28;20035;-69
2022/05/26 07:32:27;;;;;;;23.92;13.23;;;18.60;99.90;;;;;;5075553;28;20074;-69
2022/05/26 07:34:52;;;;;;;28.05;12.95;;;18.60;99.90;;;;;;5070440;28;20368;-68
2022/05/26 07:42:47;;;;;;;20.02;11.25;;;19.20;99.90;;;;;;5076055;28;20044;-69
2022/05/26 07:45:13;;;;;;;19.27;10.93;;;19.30;99.90;;;;;;5071332;28;20040;-69
2022/05/26 07:47:39;;;;;;;22.15;11.13;;;19.20;99.90;;;;;;5076538;28;20028;-70
2022/05/26 07:50:06;;;;;;;23.50;12.55;;;19.10;99.90;;;;;;5071956;28;20362;-69
2022/05/26 07:52:32;;;;;;;19.35;11.25;;;19.20;99.90;;;;;;5074595;28;20485;-69
2022/05/26 07:54:58;;;;;;;19.55;10.68;;;19.30;99.90;;;;;;5070747;28;20081;-69
2022/05/26 07:57:26;;;;;;;18.65;10.18;;;19.40;99.90;;;;;;5076340;28;20028;-69
2022/05/26 07:59:53;;;;;;;19.40;9.57;;;19.40;99.90;;;;;;5071019;28;20024;-69
2022/05/26 08:02:19;;;;;;;20.38;9.75;;;19.40;99.90;;;;;;5076194;28;20051;-69
2022/05/26 08:04:45;;;;;;;19.60;9.63;;;19.40;99.90;;;;;;5071534;28;20071;-68
2022/05/26 08:07:11;;;;;;;20.50;10.25;;;19.30;99.90;;;;;;5075469;28;20097;-69
2022/05/26 08:09:40;;;;;;;22.75;11.73;;;19.50;99.90;;;;;;5077414;28;20524;-69
2022/05/26 08:12:11;;;;;;;17.73;9.68;;;19.40;99.90;;;;;;5067741;28;20489;-69
2022/05/26 08:14:38;;;;;;;15.65;9.68;;;19.50;99.90;;;;;;5070722;28;20032;-69
2022/05/26 08:17:04;;;;;;;17.17;9.27;;;19.80;99.90;;;;;;5077498;28;20035;-69
2022/05/26 08:19:30;;;;;;;21.20;9.52;;;19.70;99.90;;;;;;5071486;28;20037;-69
2022/05/26 08:21:55;;;;;;;16.42;8.43;;;19.60;99.90;;;;;;5075413;28;20057;-69
2022/05/26 08:24:24;;;;;;;16.48;9.75;;;19.50;99.90;;;;;;5076305;28;20029;-69
2022/05/26 08:26:50;;;;;;;20.10;8.90;;;19.70;99.90;;;;;;5070432;28;20496;-69
2022/05/26 08:29:16;;;;;;;18.85;9.07;;;19.80;99.90;;;;;;5072225;28;20064;-69
2022/05/26 08:31:42;;;;;;;18.40;9.30;;;20.00;99.90;;;;;;5075300;28;20070;-69
2022/05/26 08:34:08;;;;;;;15.80;9.25;;;19.90;99.90;;;;;;5076417;28;20049;-69
2022/05/26 08:36:35;;;;;;;14.25;7.72;;;20.10;99.90;;;;;;5069456;28;20032;-69
2022/05/26 08:39:02;;;;;;;15.13;8.10;;;20.30;99.90;;;;;;5076831;28;20111;-69
2022/05/26 08:41:33;;;;;;;14.85;7.07;;;20.50;99.90;;;;;;5071132;28;20032;-69
2022/05/26 08:44:04;;;;;;;11.57;6.82;;;20.90;99.90;;;;;;5063681;28;20025;-69
2022/05/26 08:47:03;;;;;;;10.13;6.28;;;21.20;99.90;;;;;;5067411;28;20030;-69
2022/05/26 08:49:29;;;;;;;12.55;6.10;;;21.10;99.90;;;;;;5067986;28;20052;-69
2022/05/26 08:52:08;;;;;;;11.70;6.10;;;21.20;99.90;;;;;;5070478;28;20090;-69
2022/05/26 08:54:39;;;;;;;12.48;6.53;;;21.20;99.90;;;;;;5074879;28;20038;-69
2022/05/26 08:57:14;;;;;;;9.80;6.25;;;21.30;99.90;;;;;;5066130;28;20048;-69
2022/05/26 08:59:45;;;;;;;12.98;6.05;;;21.20;99.90;;;;;;5075981;28;20040;-69
2022/05/26 09:02:31;;;;;;;12.00;5.55;;;21.30;99.90;;;;;;5069486;28;20028;-69
2022/05/26 09:05:00;;;;;;;11.88;6.10;;;21.60;99.90;;;;;;5073633;28;20040;-69
2022/05/26 09:13:17;;;;;;;10.13;5.30;;;21.60;99.90;;;;;;5075498;28;20108;-69
2022/05/26 09:15:43;;;;;;;13.20;5.30;;;21.70;99.90;;;;;;5074268;28;20036;-69
2022/05/26 09:18:19;;;;;;;10.07;5.88;;;21.80;99.90;;;;;;5066342;28;20032;-69
2022/05/26 09:20:46;;;;;;;11.07;5.07;;;22.10;99.90;;;;;;5074988;28;20103;-69
2022/05/26 09:23:23;;;;;;;11.70;5.45;;;22.00;99.90;;;;;;5071026;28;20119;-69
2022/05/26 09:25:53;;;;;;;10.55;5.40;;;22.00;99.90;;;;;;5069877;28;20025;-69
2022/05/26 09:28:27;;;;;;;9.90;4.82;;;22.10;99.90;;;;;;5067857;28;20029;-69
2022/05/26 09:30:53;;;;;;;9.00;4.40;;;22.30;99.90;;;;;;5071561;28;20032;-69
2022/05/26 09:33:27;;;;;;;9.82;4.93;;;22.40;99.90;;;;;;5071250;28;20113;-69
2022/05/26 09:35:53;;;;;;;8.80;4.28;;;22.10;99.90;;;;;;5072293;28;20035;-69
2022/05/26 09:38:30;;;;;;;9.45;4.03;;;22.10;99.90;;;;;;5073160;28;20044;-69
2022/05/26 09:41:06;;;;;;;8.82;4.25;;;22.20;99.90;;;;;;5072828;28;20032;-69
2022/05/26 09:43:32;;;;;;;5.93;3.40;;;22.10;99.90;;;;;;5073110;28;20067;-69
2022/05/26 09:46:01;;;;;;;6.65;3.40;;;21.90;99.90;;;;;;5071974;28;20079;-69
2022/05/26 09:48:36;;;;;;;5.85;3.30;;;22.00;99.90;;;;;;5075383;28;20072;-69
2022/05/26 09:51:30;;;;;;;10.60;3.60;;;21.80;99.90;;;;;;5073873;28;20472;-69
2022/05/26 09:53:56;;;;;;;9.70;4.30;;;22.00;99.90;;;;;;5068950;28;20048;-69
2022/05/26 09:56:30;;;;;;;7.97;3.67;;;22.00;99.90;;;;;;5071657;28;20028;-69
2022/05/26 09:58:56;;;;;;;5.63;3.75;;;22.10;99.90;;;;;;5069115;28;20064;-69
2022/05/26 10:01:28;;;;;;;7.13;3.38;;;21.90;99.90;;;;;;5071491;28;20165;-69
2022/05/26 10:03:58;;;;;;;6.78;3.28;;;21.80;99.90;;;;;;5070223;28;20396;-69
2022/05/26 10:06:32;;;;;;;8.43;3.30;;;21.80;99.90;;;;;;5067628;28;20038;-70
2022/05/26 10:09:06;;;;;;;6.28;2.92;;;21.80;99.90;;;;;;5070713;28;20082;-70
2022/05/26 10:11:52;;;;;;;7.05;3.50;;;21.90;99.90;;;;;;5072778;28;20031;-71
2022/05/26 10:14:36;;;;;;;9.15;3.30;;;22.30;99.90;;;;;;5072752;28;20045;-70
2022/05/26 10:17:36;;;;;;;5.70;3.42;;;22.20;99.90;;;;;;5068644;28;20067;-71
2022/05/26 10:20:20;;;;;;;7.78;3.33;;;22.40;99.90;;;;;;5063390;28;20029;-70
2022/05/26 10:23:07;;;;;;;6.72;3.72;;;22.60;99.90;;;;;;5070546;28;20037;-70
2022/05/26 10:25:49;;;;;;;11.38;3.20;;;22.40;99.90;;;;;;5072666;28;20045;-70
2022/05/26 10:28:59;;;;;;;6.53;3.50;;;22.50;99.90;;;;;;5074004;28;20037;-69
2022/05/26 10:31:53;;;;;;;5.03;2.80;;;22.90;99.90;;;;;;5067906;28;20119;-71
2022/05/26 10:34:57;;;;;;;4.28;2.70;;;22.70;99.90;;;;;;5069725;28;20047;-70
2022/05/26 10:37:48;;;;;;;5.50;2.67;;;22.90;99.00;;;;;;5067205;28;20043;-70
2022/05/26 10:40:38;;;;;;;8.15;3.30;;;23.00;99.40;;;;;;5067306;28;20040;-69
2022/05/26 10:43:10;;;;;;;9.45;3.35;;;22.70;99.90;;;;;;5072943;28;20135;-69
2022/05/26 10:45:37;;;;;;;5.25;3.30;;;22.60;99.90;;;;;;5069527;28;20036;-69
2022/05/26 10:48:14;;;;;;;6.78;3.42;;;22.40;99.90;;;;;;5071033;28;20025;-70
2022/05/26 10:51:05;;;;;;;9.18;3.58;;;22.60;99.90;;;;;;5073173;28;20036;-70
2022/05/26 10:53:49;;;;;;;6.53;2.90;;;23.00;99.90;;;;;;5069605;28;20385;-70
2022/05/26 10:56:25;;;;;;;6.55;3.10;;;23.00;99.70;;;;;;5072454;28;20036;-70
2022/05/26 10:59:01;;;;;;;5.60;3.03;;;22.70;99.80;;;;;;5066069;28;20051;-70
2022/05/26 11:01:42;;;;;;;7.97;2.97;;;22.60;99.60;;;;;;5065666;28;20040;-70
2022/05/26 11:04:35;;;;;;;6.20;3.17;;;22.90;99.30;;;;;;5062889;28;20047;-70
2022/05/26 11:07:17;;;;;;;9.88;3.53;;;22.90;99.40;;;;;;5062372;28;20515;-70
2022/05/26 11:09:51;;;;;;;7.82;3.10;;;23.20;98.60;;;;;;5069974;28;20054;-70
2022/05/26 11:12:45;;;;;;;5.43;2.60;;;23.40;98.80;;;;;;5059727;28;20028;-70
2022/05/26 11:18:09;;;;;;;5.78;3.33;;;24.00;98.40;;;;;;5051433;28;20109;-70
2022/05/26 11:20:41;;;;;;;6.78;3.25;;;24.10;98.40;;;;;;5063658;28;20113;-70
2022/05/26 11:23:08;;;;;;;9.30;2.60;;;24.10;99.10;;;;;;5068358;28;20036;-70
2022/05/26 11:25:50;;;;;;;6.90;2.65;;;24.10;98.40;;;;;;5071952;28;20043;-70
2022/05/26 11:28:35;;;;;;;4.35;2.92;;;24.20;97.00;;;;;;5072084;28;20032;-70
2022/05/26 11:37:27;;;;;;;7.93;3.07;;;23.40;98.40;;;;;;5062284;28;20039;-70
2022/05/26 11:40:00;;;;;;;7.93;3.42;;;23.70;98.30;;;;;;5051631;28;20267;-70
2022/05/26 11:42:38;;;;;;;7.90;3.40;;;24.10;97.20;;;;;;5065347;28;20119;-70
2022/05/26 11:45:47;;;;;;;6.32;3.08;;;23.70;97.30;;;;;;5075418;28;20510;-70
2022/05/26 11:48:31;;;;;;;8.63;2.30;;;23.40;97.60;;;;;;5064358;28;20586;-70
2022/05/26 11:51:00;;;;;;;8.88;2.58;;;23.50;97.20;;;;;;5076031;28;20089;-70
2022/05/26 11:53:28;;;;;;;6.45;2.78;;;23.60;97.90;;;;;;5065571;28;20135;-70
2022/05/26 11:56:21;;;;;;;8.50;2.90;;;23.70;98.20;;;;;;5073741;28;20547;-70
2022/05/26 11:59:06;;;;;;;7.22;2.50;;;23.60;97.60;;;;;;5066123;28;20119;-70
2022/05/26 12:01:35;;;;;;;9.13;2.72;;;23.50;97.70;;;;;;5063055;28;20473;-70
2022/05/26 12:04:14;;;;;;;8.05;2.88;;;23.20;98.00;;;;;;5067717;28;20028;-70
2022/05/26 12:06:42;;;;;;;7.18;2.58;;;23.10;98.00;;;;;;5074625;28;20396;-70
2022/05/26 12:09:18;;;;;;;8.00;2.42;;;23.10;97.70;;;;;;5073387;28;20028;-71
2022/05/26 12:11:57;;;;;;;7.90;2.83;;;23.30;98.40;;;;;;5067436;28;20025;-70
2022/05/26 12:15:00;;;;;;;7.75;2.20;;;23.20;98.30;;;;;;5054109;28;20492;-71
2022/05/26 12:17:32;;;;;;;7.82;2.60;;;23.00;97.30;;;;;;5055713;28;20411;-71
2022/05/26 12:20:18;;;;;;;7.80;2.30;;;23.20;98.60;;;;;;5055196;28;20036;-71
2022/05/26 12:22:47;;;;;;;6.72;2.92;;;23.20;98.80;;;;;;5063510;28;20049;-71
2022/05/26 12:25:21;;;;;;;9.65;2.92;;;23.30;98.00;;;;;;5074484;28;20033;-71
2022/05/26 12:27:55;;;;;;;5.15;2.13;;;23.10;98.80;;;;;;5072367;28;20027;-71
2022/05/26 12:30:46;;;;;;;7.15;2.00;;;23.10;97.70;;;;;;5053960;28;20044;-71
2022/05/26 12:33:20;;;;;;;4.50;2.00;;;23.10;97.60;;;;;;5054802;28;20029;-70
2022/05/26 12:36:10;;;;;;;7.93;2.25;;;23.10;98.30;;;;;;5055148;28;20044;-70
2022/05/26 12:39:10;;;;;;;9.70;3.05;;;23.30;98.10;;;;;;5061485;28;20028;-72
2022/05/26 12:42:01;;;;;;;7.25;2.42;;;23.30;98.50;;;;;;5074439;28;20036;-71
2022/05/26 12:44:45;;;;;;;6.90;2.55;;;23.20;98.00;;;;;;5074998;28;20036;-71
2022/05/26 12:47:36;;;;;;;4.88;2.30;;;23.00;98.50;;;;;;5072282;28;20036;-73
2022/05/26 12:50:19;;;;;;;4.88;1.85;;;22.90;97.60;;;;;;5074775;28;20538;-69
2022/05/26 12:53:03;;;;;;;4.13;1.55;;;22.90;97.70;;;;;;5074082;28;20107;-70
2022/05/26 12:56:06;;;;;;;6.60;1.60;;;23.10;97.20;;;;;;5088073;28;20040;-72
2022/05/26 12:58:32;;;;;;;;;;;23.50;97.20;;;;;;5070682;28;20028;-75
2022/05/26 13:00:59;;;;;;;5.95;2.17;;;23.40;96.70;;;;;;5054365;28;19916;-72
2022/05/26 13:03:42;;;;;;;6.13;1.83;;;23.40;97.90;;;;;;5054097;28;21381;-71
2022/05/26 13:06:09;;;;;;;;;;;23.30;99.20;;;;;;5054290;28;20033;-70
2022/05/26 13:08:59;;;;;;;8.85;2.15;;;23.30;98.10;;;;;;5053276;28;19987;-70
2022/05/26 13:11:42;;;;;;;4.40;1.58;;;23.50;97.30;;;;;;5054038;28;20385;-70
2022/05/26 13:14:19;;;;;;;5.28;1.80;;;23.60;96.60;;;;;;5053923;28;20588;-70
2022/05/26 13:16:45;;;;;;;5.55;1.77;;;23.70;96.60;;;;;;5053048;28;20017;-69
2022/05/26 13:19:12;;;;;;;5.30;1.85;;;23.60;97.00;;;;;;5054129;28;20021;-70
2022/05/26 13:21:40;;;;;;;4.00;1.63;;;23.60;97.00;;;;;;5053392;28;20425;-70
2022/05/26 13:24:19;;;;;;;5.63;2.00;;;23.70;97.00;;;;;;5053764;28;20497;-70
2022/05/26 13:26:48;;;;;;;6.50;2.20;;;23.80;97.50;;;;;;5056137;28;20055;-68
2022/05/26 13:29:18;;;;;;;6.22;1.80;;;23.90;96.40;;;;;;5062897;28;20024;-70
2022/05/26 13:34:31;;;;;;;5.10;1.90;;;23.80;96.30;;;;;;5060002;28;20032;-70
2022/05/26 13:37:02;;;;;;;9.95;1.85;;;23.70;96.30;;;;;;5061237;28;20474;-70
2022/05/26 13:39:27;;;;;;;5.63;1.70;;;23.40;96.80;;;;;;5069903;28;20036;-70
2022/05/26 13:41:54;;;;;;;7.28;1.98;;;23.20;96.90;;;;;;5060772;28;20016;-70
2022/05/26 13:44:34;;;;;;;5.35;2.13;;;23.10;97.40;;;;;;5062385;28;20043;-70
2022/05/26 13:47:04;;;;;;;4.28;1.58;;;23.40;97.80;;;;;;5062930;28;20519;-70
2022/05/26 13:49:39;;;;;;;4.70;2.28;;;23.40;96.90;;;;;;5056637;28;20017;-70
2022/05/26 13:52:11;;;;;;;4.40;2.03;;;23.20;96.80;;;;;;5064620;28;20021;-71